Time;durP1;ratioP1;P1;durP2;ratioP2;P2;SDS_P1;SDS_P2;PMS_P1;PMS_P2;Temp;Humidity;BMP_temperature;BMP_pressure;BME280_temperature;BME280_humidity;BME280_pressure;Samples;Min_cycle;Max_cycle;Signal;HPM_P1;HPM_P2
2022/10/19 00:01:05;;;;;;;25.90;3.58;;;11.20;99.90;;;;;;5038541;28;20038;-72
2022/10/19 00:03:35;;;;;;;39.75;3.78;;;11.10;99.90;;;;;;5037263;28;20372;-75
2022/10/19 00:06:17;;;;;;;27.77;3.75;;;11.10;99.90;;;;;;5038682;28;20045;-74
2022/10/19 00:08:45;;;;;;;25.88;3.67;;;11.10;99.90;;;;;;5019799;28;20472;-73
2022/10/19 00:11:12;;;;;;;34.72;4.20;;;11.10;99.90;;;;;;5038079;28;20041;-73
2022/10/19 00:13:40;;;;;;;35.58;3.90;;;11.10;99.90;;;;;;5020891;28;20049;-73
2022/10/19 00:16:13;;;;;;;32.47;3.92;;;11.00;99.90;;;;;;5037237;28;20049;-73
2022/10/19 00:18:44;;;;;;;31.88;3.78;;;11.00;99.90;;;;;;5037133;28;20072;-73
2022/10/19 00:21:15;;;;;;;27.02;3.55;;;11.00;99.90;;;;;;5037591;28;20046;-74
2022/10/19 00:23:43;;;;;;;36.55;3.83;;;10.90;99.90;;;;;;5038589;28;20491;-73
2022/10/19 00:26:11;;;;;;;20.63;2.78;;;10.90;99.90;;;;;;5021068;28;20515;-75
2022/10/19 00:28:40;;;;;;;30.73;3.65;;;10.90;99.90;;;;;;5036793;28;20053;-73
2022/10/19 00:31:15;;;;;;;30.42;3.67;;;11.10;99.90;;;;;;5037659;28;20472;-74
2022/10/19 00:33:45;;;;;;;36.40;3.83;;;10.90;99.90;;;;;;5020776;28;20045;-74
2022/10/19 00:36:31;;;;;;;32.88;4.05;;;11.00;99.90;;;;;;5036532;28;20056;-73
2022/10/19 00:38:59;;;;;;;36.85;3.63;;;10.90;99.90;;;;;;5020885;28;20053;-72
2022/10/19 00:41:30;;;;;;;32.97;3.58;;;11.00;99.90;;;;;;5036474;28;20064;-74
2022/10/19 00:44:03;;;;;;;37.85;3.70;;;11.50;99.90;;;;;;5020307;28;20053;-75
2022/10/19 00:46:34;;;;;;;26.58;3.85;;;10.90;99.90;;;;;;5037486;28;20049;-73
2022/10/19 00:49:16;;;;;;;33.53;4.20;;;10.90;99.90;;;;;;5036665;28;20452;-72
2022/10/19 00:51:48;;;;;;;34.90;3.70;;;11.60;99.90;;;;;;5037764;28;20456;-73
2022/10/19 00:54:17;;;;;;;30.05;3.38;;;11.20;99.90;;;;;;5019901;28;20045;-75
2022/10/19 00:56:48;;;;;;;33.03;3.92;;;10.80;99.90;;;;;;5035334;28;20064;-75
2022/10/19 00:59:18;;;;;;;27.30;3.97;;;10.90;99.90;;;;;;5037726;28;20053;-75
2022/10/19 01:01:47;;;;;;;39.85;4.20;;;10.90;99.90;;;;;;5019258;28;20045;-74
2022/10/19 01:04:15;;;;;;;41.17;4.25;;;10.80;99.90;;;;;;5020259;28;20060;-71
2022/10/19 01:06:43;;;;;;;39.65;4.28;;;10.80;99.90;;;;;;5037089;28;20046;-73
2022/10/19 01:09:10;;;;;;;29.85;3.75;;;11.10;99.90;;;;;;5018624;28;20056;-74
2022/10/19 01:11:59;;;;;;;35.08;4.03;;;10.80;99.90;;;;;;5019685;28;20042;-73
2022/10/19 01:14:43;;;;;;;35.08;4.28;;;10.80;99.90;;;;;;5036784;28;20048;-73
2022/10/19 01:17:41;;;;;;;33.15;3.92;;;10.90;99.90;;;;;;5019926;28;20041;-73
2022/10/19 01:20:24;;;;;;;;;;;10.80;99.90;;;;;;5037604;28;20045;-75
2022/10/19 01:23:03;;;;;;;37.58;4.00;;;10.80;99.90;;;;;;5035332;28;20327;-74
2022/10/19 01:26:15;;;;;;;38.80;4.40;;;10.80;99.90;;;;;;5037212;28;20049;-75
2022/10/19 01:28:58;;;;;;;28.38;4.30;;;10.80;99.90;;;;;;4966515;28;20048;-72
2022/10/19 01:31:45;;;;;;;24.20;3.92;;;11.10;99.90;;;;;;5037075;28;20041;-74
2022/10/19 01:34:24;;;;;;;33.08;3.70;;;10.90;99.90;;;;;;5036557;28;20103;-74
2022/10/19 01:37:09;;;;;;;22.35;3.55;;;10.80;99.90;;;;;;5018413;28;20054;-73
2022/10/19 01:39:48;;;;;;;33.88;4.15;;;10.80;99.90;;;;;;5036561;28;20056;-74
2022/10/19 01:42:22;;;;;;;32.92;4.13;;;10.80;99.90;;;;;;5035546;28;20472;-72
2022/10/19 01:45:01;;;;;;;27.42;3.92;;;10.80;99.90;;;;;;5036313;28;20060;-72
2022/10/19 01:47:56;;;;;;;29.95;4.32;;;11.00;99.90;;;;;;5019368;28;20041;-74
2022/10/19 01:50:34;;;;;;;23.58;3.60;;;10.80;99.90;;;;;;5029123;28;20365;-75
2022/10/19 01:53:06;;;;;;;28.15;4.22;;;10.80;99.90;;;;;;5036218;28;20061;-73
2022/10/19 01:55:36;;;;;;;24.80;4.07;;;10.90;99.90;;;;;;5035559;28;20042;-72
2022/10/19 01:58:08;;;;;;;26.10;4.40;;;11.70;99.90;;;;;;5036748;28;20045;-73
2022/10/19 02:00:40;;;;;;;25.65;3.80;;;10.90;99.90;;;;;;5036634;28;20045;-72
2022/10/19 02:03:09;;;;;;;29.60;4.22;;;11.20;99.90;;;;;;5017910;28;20360;-72
2022/10/19 02:05:37;;;;;;;34.53;3.80;;;10.90;99.90;;;;;;5018856;28;20236;-74
2022/10/19 02:08:15;;;;;;;27.98;3.85;;;10.90;99.90;;;;;;5034379;28;20061;-73
2022/10/19 02:10:43;;;;;;;;;;;11.00;99.90;;;;;;5036237;28;20452;-72
2022/10/19 02:13:14;;;;;;;31.27;3.67;;;11.00;99.90;;;;;;5018654;28;19932;-75
2022/10/19 02:15:46;;;;;;;28.33;3.55;;;11.00;99.90;;;;;;5034909;28;20052;-72
2022/10/19 02:18:18;;;;;;;26.58;3.30;;;11.30;99.90;;;;;;5035725;28;20038;-72
2022/10/19 02:20:46;;;;;;;34.15;3.80;;;11.00;99.90;;;;;;5036034;28;20041;-71
2022/10/19 02:23:16;;;;;;;29.35;3.70;;;11.10;99.90;;;;;;5034697;28;20069;-72
2022/10/19 02:25:43;;;;;;;30.23;3.50;;;11.70;99.90;;;;;;5018705;28;20483;-74
2022/10/19 02:28:11;;;;;;;28.48;3.45;;;11.10;99.90;;;;;;5034537;28;20317;-72
2022/10/19 02:30:41;;;;;;;25.35;3.47;;;12.00;99.90;;;;;;5018344;28;20057;-74
2022/10/19 02:33:11;;;;;;;33.50;4.05;;;11.10;99.90;;;;;;5035929;28;20049;-72
2022/10/19 02:35:39;;;;;;;33.90;3.40;;;11.10;99.90;;;;;;5001268;28;20045;-72
2022/10/19 02:38:09;;;;;;;25.17;3.00;;;11.10;99.90;;;;;;5035518;28;20057;-74
2022/10/19 02:40:40;;;;;;;20.90;3.40;;;11.20;99.90;;;;;;5018129;28;20052;-75
2022/10/19 02:43:16;;;;;;;32.45;3.80;;;9.90;99.90;;;;;;5017017;28;20353;-72
2022/10/19 02:45:55;;;;;;;22.20;3.25;;;11.10;99.90;;;;;;5035915;28;20045;-73
2022/10/19 02:48:25;;;;;;;28.88;3.20;;;11.10;99.90;;;;;;5034529;28;20461;-72
2022/10/19 02:50:53;;;;;;;18.45;2.60;;;11.10;99.90;;;;;;5018184;28;20053;-71
2022/10/19 02:53:20;;;;;;;29.38;3.30;;;11.20;99.90;;;;;;5035073;28;20046;-75
2022/10/19 02:55:49;;;;;;;21.63;3.50;;;11.20;99.90;;;;;;5033947;28;20398;-74
2022/10/19 02:58:16;;;;;;;30.30;3.40;;;11.20;99.90;;;;;;5035019;28;20045;-72
2022/10/19 03:00:44;;;;;;;30.70;3.95;;;11.20;99.90;;;;;;5017749;28;20041;-73
2022/10/19 03:03:12;;;;;;;28.98;3.60;;;11.10;99.90;;;;;;5034244;28;20053;-75
2022/10/19 03:05:39;;;;;;;32.47;3.67;;;11.10;99.90;;;;;;5035003;28;20046;-73
2022/10/19 03:08:07;;;;;;;26.77;3.65;;;11.10;99.90;;;;;;5016520;28;20046;-75
2022/10/19 03:10:34;;;;;;;30.92;3.50;;;11.10;99.90;;;;;;5034846;28;20380;-75
2022/10/19 03:13:02;;;;;;;39.67;4.07;;;11.10;99.90;;;;;;5035082;28;20053;-73
2022/10/19 03:15:29;;;;;;;28.67;4.25;;;12.10;99.90;;;;;;5031585;28;20060;-75
2022/10/19 03:17:57;;;;;;;32.47;3.97;;;11.10;99.90;;;;;;5054220;28;20045;-74
2022/10/19 03:20:25;;;;;;;27.80;4.32;;;11.10;99.90;;;;;;5053927;28;20056;-74
2022/10/19 03:22:52;;;;;;;31.08;4.05;;;11.20;99.90;;;;;;5053558;28;20064;-73
2022/10/19 03:25:24;;;;;;;21.67;3.55;;;11.20;99.90;;;;;;5054900;28;20052;-73
2022/10/19 03:27:52;;;;;;;30.48;4.25;;;11.20;99.90;;;;;;5053276;28;20063;-72
2022/10/19 03:30:20;;;;;;;38.55;4.30;;;11.20;99.90;;;;;;5054429;28;20041;-74
2022/10/19 03:32:47;;;;;;;39.35;4.30;;;11.20;99.90;;;;;;5054728;28;20040;-72
2022/10/19 03:35:15;;;;;;;25.10;3.58;;;11.30;99.90;;;;;;5053391;28;20041;-72
2022/10/19 03:37:42;;;;;;;40.53;4.80;;;11.30;99.90;;;;;;5054680;28;20371;-75
2022/10/19 03:40:10;;;;;;;35.08;4.43;;;11.30;99.90;;;;;;5053843;28;20064;-72
2022/10/19 03:42:37;;;;;;;32.92;4.43;;;11.30;99.90;;;;;;5053639;28;20056;-73
2022/10/19 03:45:05;;;;;;;33.45;4.47;;;11.40;99.90;;;;;;5054654;28;20040;-74
2022/10/19 03:47:33;;;;;;;30.55;4.10;;;11.30;99.90;;;;;;5054398;28;20364;-75
2022/10/19 03:50:01;;;;;;;29.50;4.18;;;11.20;99.90;;;;;;5053190;28;20379;-75
2022/10/19 03:52:29;;;;;;;23.50;3.80;;;11.20;99.90;;;;;;5054746;28;20095;-73
2022/10/19 03:54:56;;;;;;;32.97;4.22;;;11.80;99.90;;;;;;5053498;28;20048;-75
2022/10/19 03:57:24;;;;;;;32.47;3.95;;;11.10;99.90;;;;;;5036948;28;20048;-72
2022/10/19 03:59:51;;;;;;;39.65;4.63;;;11.10;99.90;;;;;;5053649;28;20063;-75
2022/10/19 04:02:19;;;;;;;27.85;4.20;;;11.40;99.90;;;;;;5053033;28;20052;-73
2022/10/19 04:04:46;;;;;;;33.38;4.90;;;11.10;99.90;;;;;;5054676;28;20045;-74
2022/10/19 04:07:14;;;;;;;33.75;4.05;;;11.20;99.90;;;;;;5053739;28;20053;-73
2022/10/19 04:09:41;;;;;;;32.90;4.25;;;11.70;99.90;;;;;;5052205;28;20120;-73
2022/10/19 04:12:09;;;;;;;36.25;4.25;;;11.20;99.90;;;;;;5054286;28;20053;-73
2022/10/19 04:14:37;;;;;;;31.60;4.70;;;11.10;99.90;;;;;;5050265;28;20053;-71
2022/10/19 04:17:24;;;;;;;32.72;4.72;;;11.40;99.90;;;;;;5017782;28;20069;-73
2022/10/19 04:19:51;;;;;;;;;;;11.20;99.90;;;;;;5034753;28;20061;-75
2022/10/19 04:22:19;;;;;;;46.17;5.32;;;11.20;99.90;;;;;;5033088;28;19928;-74
2022/10/19 04:24:47;;;;;;;33.63;4.25;;;11.20;99.90;;;;;;5034395;28;20053;-74
2022/10/19 04:27:14;;;;;;;33.55;4.75;;;11.30;99.90;;;;;;5034092;28;20065;-73
2022/10/19 04:29:41;;;;;;;41.38;5.88;;;11.20;99.90;;;;;;5034002;28;20049;-74
2022/10/19 04:32:09;;;;;;;33.97;4.70;;;11.90;99.90;;;;;;5037835;28;20052;-71
2022/10/19 04:34:37;;;;;;;39.17;5.35;;;11.30;99.90;;;;;;5037488;28;20056;-72
2022/10/19 04:37:09;;;;;;;31.70;5.18;;;11.30;99.90;;;;;;5037924;28;20044;-71
2022/10/19 04:39:39;;;;;;;37.33;5.63;;;12.00;99.90;;;;;;5037812;28;20052;-72
2022/10/19 04:42:07;;;;;;;43.28;6.03;;;11.40;99.90;;;;;;5037027;28;20053;-72
2022/10/19 04:44:34;;;;;;;41.70;5.70;;;11.30;99.90;;;;;;5037728;28;20049;-74
2022/10/19 04:47:02;;;;;;;43.92;6.50;;;11.30;99.90;;;;;;5037857;28;20404;-75
2022/10/19 04:49:29;;;;;;;46.72;5.75;;;11.30;99.90;;;;;;5018940;28;20497;-73
2022/10/19 04:51:57;;;;;;;32.17;6.15;;;11.30;99.90;;;;;;5037768;28;20052;-72
2022/10/19 04:54:25;;;;;;;42.60;6.57;;;11.30;99.90;;;;;;5037334;28;20460;-74
2022/10/19 04:56:52;;;;;;;48.90;6.57;;;11.30;99.90;;;;;;5036268;28;20041;-74
2022/10/19 04:59:20;;;;;;;41.83;6.88;;;11.30;99.90;;;;;;5037274;28;20376;-72
2022/10/19 05:01:47;;;;;;;37.90;6.57;;;11.30;99.90;;;;;;5036411;28;20376;-72
2022/10/19 05:04:15;;;;;;;41.15;6.78;;;11.40;99.90;;;;;;5020135;28;20049;-72
2022/10/19 05:06:42;;;;;;;43.10;6.93;;;11.20;99.90;;;;;;5019813;28;20357;-73
2022/10/19 05:09:10;;;;;;;47.53;7.75;;;11.40;99.90;;;;;;5036403;28;20372;-72
2022/10/19 05:11:38;;;;;;;40.13;7.43;;;11.20;99.90;;;;;;5019800;28;20057;-73
2022/10/19 05:14:05;;;;;;;54.65;8.57;;;11.20;99.90;;;;;;5020140;28;20053;-72
2022/10/19 05:16:33;;;;;;;45.78;8.63;;;11.20;99.90;;;;;;5037683;28;20045;-73
2022/10/19 05:19:00;;;;;;;43.95;8.35;;;11.20;99.90;;;;;;5019698;28;20046;-75
2022/10/19 05:21:28;;;;;;;47.30;8.38;;;11.20;99.90;;;;;;5035898;28;20364;-72
2022/10/19 05:23:56;;;;;;;45.58;8.25;;;11.20;99.90;;;;;;5019843;28;20052;-74
2022/10/19 05:26:26;;;;;;;47.47;8.60;;;11.20;99.90;;;;;;5037362;28;20050;-72
2022/10/19 05:28:58;;;;;;;51.90;8.90;;;11.20;99.90;;;;;;5018493;28;20435;-73
2022/10/19 05:31:28;;;;;;;48.45;9.10;;;11.20;99.90;;;;;;5019561;28;20050;-75
2022/10/19 05:33:56;;;;;;;45.47;9.10;;;11.20;99.90;;;;;;5036283;28;20049;-71
2022/10/19 05:36:28;;;;;;;;;;;11.20;99.90;;;;;;5036162;28;20041;-73
2022/10/19 05:38:56;;;;;;;53.35;9.10;;;11.20;99.90;;;;;;5019501;28;19928;-71
2022/10/19 05:41:25;;;;;;;46.22;9.50;;;11.30;99.90;;;;;;5014734;28;20045;-74
2022/10/19 05:43:55;;;;;;;50.50;10.52;;;11.20;99.90;;;;;;4999288;28;20060;-73
2022/10/19 05:46:24;;;;;;;48.13;10.50;;;11.20;99.90;;;;;;4983504;28;20054;-73
2022/10/19 05:48:51;;;;;;;56.38;11.48;;;11.30;99.90;;;;;;5015555;28;20469;-72
2022/10/19 05:51:20;;;;;;;59.05;10.38;;;11.30;99.90;;;;;;4999313;28;20050;-73
2022/10/19 05:53:48;;;;;;;43.08;10.65;;;11.30;99.90;;;;;;5016759;28;20046;-73
2022/10/19 05:56:18;;;;;;;58.38;10.35;;;11.40;99.90;;;;;;5015611;28;20042;-72
2022/10/19 05:58:46;;;;;;;47.53;9.77;;;11.40;99.90;;;;;;5016381;28;20042;-73
2022/10/19 06:01:14;;;;;;;59.35;9.95;;;11.40;99.90;;;;;;5015178;28;20465;-73
2022/10/19 06:03:42;;;;;;;;;;;11.40;99.90;;;;;;5000003;28;20476;-73
2022/10/19 06:06:10;;;;;;;58.53;10.15;;;11.40;99.90;;;;;;5016352;28;19928;-72
2022/10/19 06:08:38;;;;;;;;;;;11.40;99.90;;;;;;4998353;28;20050;-73
2022/10/19 06:11:10;;;;;;;64.05;9.52;;;11.40;99.90;;;;;;4999023;28;20019;-71
2022/10/19 06:13:39;;;;;;;51.85;10.35;;;11.40;99.90;;;;;;5016185;28;20046;-72
2022/10/19 06:16:08;;;;;;;52.05;11.15;;;11.40;99.90;;;;;;5015032;28;20495;-73
2022/10/19 06:18:36;;;;;;;53.33;11.13;;;11.40;99.90;;;;;;4999231;28;20054;-73
2022/10/19 06:21:07;;;;;;;54.35;11.32;;;11.50;99.90;;;;;;5016552;28;20050;-72
2022/10/19 06:23:35;;;;;;;61.22;11.35;;;11.50;99.90;;;;;;5014808;28;20046;-72
2022/10/19 06:26:04;;;;;;;;;;;11.50;99.90;;;;;;4999324;28;20050;-72
2022/10/19 06:28:31;;;;;;;55.92;11.38;;;11.60;99.90;;;;;;4997677;28;20392;-72
2022/10/19 06:30:59;;;;;;;56.72;11.40;;;11.60;99.90;;;;;;4998895;28;20050;-73
2022/10/19 06:33:28;;;;;;;57.70;12.27;;;11.60;99.90;;;;;;5016227;28;20053;-74
2022/10/19 06:36:07;;;;;;;52.03;11.27;;;11.70;99.90;;;;;;5014250;28;20476;-71
2022/10/19 06:38:35;;;;;;;57.47;11.73;;;11.70;99.90;;;;;;5015383;28;20053;-75
2022/10/19 06:41:03;;;;;;;59.72;11.85;;;11.70;99.90;;;;;;4998370;28;20050;-73
2022/10/19 06:43:31;;;;;;;;;;;11.70;99.90;;;;;;4981426;28;20050;-72
2022/10/19 06:46:19;;;;;;;52.83;12.50;;;11.70;99.90;;;;;;5015525;28;19940;-71
2022/10/19 06:48:50;;;;;;;;;;;11.70;99.90;;;;;;5014658;28;20049;-73
2022/10/19 06:51:18;;;;;;;49.40;11.90;;;11.70;99.90;;;;;;4997839;28;19921;-75
2022/10/19 06:53:46;;;;;;;54.00;11.98;;;11.70;99.90;;;;;;4981946;28;20049;-71
2022/10/19 06:56:13;;;;;;;52.20;11.60;;;11.70;99.90;;;;;;4980856;28;20046;-72
2022/10/19 06:58:41;;;;;;;61.05;11.75;;;11.70;99.90;;;;;;5015086;28;20047;-72
2022/10/19 07:01:10;;;;;;;55.08;10.48;;;11.70;99.90;;;;;;4998011;28;20045;-72
2022/10/19 07:03:38;;;;;;;50.55;10.13;;;12.10;99.90;;;;;;5013970;28;20457;-71
2022/10/19 07:06:10;;;;;;;46.63;9.63;;;11.80;99.90;;;;;;4997689;28;20377;-71
2022/10/19 07:08:38;;;;;;;49.35;9.48;;;11.80;99.90;;;;;;5013909;28;20054;-72
2022/10/19 07:11:11;;;;;;;51.22;8.93;;;11.80;99.90;;;;;;5014881;28;20041;-72
2022/10/19 07:13:39;;;;;;;48.47;7.78;;;11.90;99.90;;;;;;5015112;28;20052;-72
2022/10/19 07:16:15;;;;;;;56.83;8.88;;;11.90;99.90;;;;;;5013556;28;20042;-72
2022/10/19 07:18:55;;;;;;;43.50;7.63;;;11.90;99.90;;;;;;5014606;28;20046;-75
2022/10/19 07:21:22;;;;;;;39.67;7.40;;;12.30;99.90;;;;;;5013838;28;20076;-73
2022/10/19 07:23:50;;;;;;;42.25;7.10;;;12.20;99.90;;;;;;5028437;28;20475;-72
2022/10/19 07:26:25;;;;;;;51.47;7.38;;;12.10;99.90;;;;;;5034675;28;20049;-72
2022/10/19 07:28:55;;;;;;;46.60;6.45;;;12.10;99.90;;;;;;5045937;28;20045;-72
2022/10/19 07:31:24;;;;;;;37.55;6.82;;;12.20;99.90;;;;;;5033366;28;20064;-71
2022/10/19 07:34:00;;;;;;;36.50;6.53;;;12.20;99.90;;;;;;5019385;28;20049;-73
2022/10/19 07:36:30;;;;;;;37.25;6.20;;;12.20;99.90;;;;;;4996608;28;20042;-73
2022/10/19 07:38:59;;;;;;;37.45;5.85;;;12.50;99.90;;;;;;5014660;28;20049;-73
2022/10/19 07:41:27;;;;;;;39.72;6.18;;;13.30;99.90;;;;;;5014210;28;20049;-73
2022/10/19 07:43:56;;;;;;;40.80;6.25;;;12.40;99.90;;;;;;5014629;28;20050;-73
2022/10/19 07:46:28;;;;;;;40.03;6.10;;;12.50;99.90;;;;;;4998088;28;20057;-73
2022/10/19 07:48:55;;;;;;;37.55;5.80;;;13.30;99.90;;;;;;5013912;28;20058;-73
2022/10/19 07:51:23;;;;;;;30.65;5.93;;;12.60;99.90;;;;;;5015162;28;20046;-73
2022/10/19 07:53:51;;;;;;;39.15;6.15;;;12.60;99.90;;;;;;5015424;28;20454;-72
2022/10/19 07:56:22;;;;;;;;;;;12.60;99.90;;;;;;5014204;28;20046;-73
2022/10/19 07:58:52;;;;;;;40.42;5.78;;;12.70;99.90;;;;;;5015226;28;19921;-73
2022/10/19 08:01:22;;;;;;;36.22;5.13;;;12.70;99.90;;;;;;4996712;28;20061;-73
2022/10/19 08:03:54;;;;;;;32.65;5.97;;;12.80;99.90;;;;;;5014799;28;20373;-73
2022/10/19 08:06:42;;;;;;;40.17;5.95;;;12.80;99.90;;;;;;5004423;28;20054;-77
2022/10/19 08:09:15;;;;;;;35.42;6.28;;;12.90;99.90;;;;;;5018145;28;20064;-74
2022/10/19 08:12:04;;;;;;;42.30;5.63;;;13.10;99.90;;;;;;4987922;28;20045;-74
2022/10/19 08:14:33;;;;;;;34.88;6.63;;;13.00;99.90;;;;;;5018430;28;20042;-76
2022/10/19 08:17:01;;;;;;;31.00;5.97;;;13.60;99.90;;;;;;5036470;28;20041;-74
2022/10/19 08:19:29;;;;;;;30.15;5.30;;;13.10;99.90;;;;;;5038016;28;20045;-74
2022/10/19 08:21:56;;;;;;;35.65;5.68;;;13.20;99.90;;;;;;5036673;28;20049;-73
2022/10/19 08:24:24;;;;;;;39.67;6.75;;;13.30;99.90;;;;;;5038775;28;20057;-74
2022/10/19 08:26:51;;;;;;;32.75;6.57;;;13.30;99.90;;;;;;5038541;28;20049;-76
2022/10/19 08:29:20;;;;;;;36.15;6.25;;;13.40;99.90;;;;;;5037179;28;20061;-76
2022/10/19 08:31:48;;;;;;;28.38;5.40;;;13.50;99.90;;;;;;5038081;28;20050;-75
2022/10/19 08:34:16;;;;;;;34.97;5.85;;;13.60;99.90;;;;;;5037943;28;20333;-76
2022/10/19 08:36:44;;;;;;;36.72;6.78;;;13.60;99.90;;;;;;5019524;28;20045;-75
2022/10/19 08:39:13;;;;;;;33.47;6.07;;;13.70;99.90;;;;;;5037528;28;20073;-75
2022/10/19 08:41:43;;;;;;;31.83;5.72;;;13.70;99.90;;;;;;5036462;28;20049;-75
2022/10/19 08:44:33;;;;;;;33.67;6.18;;;13.90;99.90;;;;;;5037263;28;20049;-75
2022/10/19 08:47:34;;;;;;;27.85;6.03;;;14.00;99.90;;;;;;5037456;28;20053;-75
2022/10/19 08:50:08;;;;;;;30.73;6.03;;;14.00;99.90;;;;;;5036555;28;20053;-75
2022/10/19 08:52:37;;;;;;;28.23;5.40;;;14.10;99.90;;;;;;5037050;28;20044;-74
2022/10/19 08:55:24;;;;;;;28.20;5.22;;;14.20;99.90;;;;;;5036787;28;20037;-76
2022/10/19 08:58:11;;;;;;;34.92;6.47;;;14.20;99.90;;;;;;5036888;28;20376;-75
2022/10/19 09:00:59;;;;;;;37.33;6.38;;;14.30;99.90;;;;;;5037726;28;20042;-75
2022/10/19 09:03:57;;;;;;;34.28;5.90;;;14.30;99.90;;;;;;5019543;28;20045;-75
2022/10/19 09:06:36;;;;;;;38.40;6.13;;;14.30;99.90;;;;;;5036490;28;20049;-75
2022/10/19 09:09:04;;;;;;;30.67;5.93;;;14.40;99.90;;;;;;5035849;28;20053;-75
2022/10/19 09:11:37;;;;;;;37.05;5.90;;;14.30;99.90;;;;;;5036862;28;20310;-75
2022/10/19 09:14:21;;;;;;;35.28;5.85;;;14.40;99.90;;;;;;5037208;28;20046;-74
2022/10/19 09:16:49;;;;;;;37.55;5.82;;;14.50;99.90;;;;;;5018769;28;20385;-75
2022/10/19 09:19:24;;;;;;;37.95;5.47;;;14.50;99.90;;;;;;5000155;28;20042;-75
2022/10/19 09:21:58;;;;;;;29.95;5.78;;;14.50;99.90;;;;;;5016529;28;20053;-75
2022/10/19 09:24:42;;;;;;;29.75;6.05;;;14.60;99.90;;;;;;4984264;28;20049;-76
2022/10/19 09:27:24;;;;;;;31.77;5.68;;;14.70;99.90;;;;;;5017245;28;20042;-75
2022/10/19 09:30:03;;;;;;;24.98;5.55;;;14.70;99.90;;;;;;4998726;28;20053;-75
2022/10/19 09:32:34;;;;;;;26.73;5.13;;;14.70;99.90;;;;;;4983943;28;20046;-76
2022/10/19 09:35:14;;;;;;;31.27;6.20;;;14.80;99.90;;;;;;4998823;28;20045;-75
2022/10/19 09:37:47;;;;;;;31.35;5.95;;;14.80;99.90;;;;;;4999999;28;20046;-75
2022/10/19 09:40:25;;;;;;;39.10;6.20;;;14.90;99.90;;;;;;5017021;28;20046;-75
2022/10/19 09:42:57;;;;;;;36.35;6.25;;;14.90;99.90;;;;;;4998714;28;20054;-75
2022/10/19 09:46:03;;;;;;;32.17;5.10;;;15.00;99.90;;;;;;5016887;28;20053;-77
2022/10/19 09:48:51;;;;;;;25.48;5.90;;;15.00;99.90;;;;;;5000571;28;20054;-75
2022/10/19 09:51:22;;;;;;;31.38;6.18;;;15.10;99.90;;;;;;4999749;28;20049;-78
2022/10/19 09:53:52;;;;;;;31.92;5.75;;;15.10;99.90;;;;;;5016759;28;20397;-76
2022/10/19 09:56:23;;;;;;;30.73;6.50;;;15.30;99.90;;;;;;4998244;28;20038;-76
2022/10/19 09:58:53;;;;;;;36.35;6.30;;;15.40;99.90;;;;;;5016663;28;20511;-76
2022/10/19 10:01:31;;;;;;;30.42;6.13;;;15.40;99.90;;;;;;4998675;28;20050;-76
2022/10/19 10:04:14;;;;;;;29.88;6.18;;;15.40;99.90;;;;;;4999264;28;20042;-76
2022/10/19 10:06:43;;;;;;;32.70;6.15;;;15.40;99.90;;;;;;4999283;28;20053;-76
2022/10/19 10:09:16;;;;;;;34.47;5.97;;;15.40;99.90;;;;;;5015200;28;20049;-76
2022/10/19 10:11:47;;;;;;;29.77;6.18;;;15.40;99.90;;;;;;5016718;28;20038;-77
2022/10/19 10:14:31;;;;;;;30.88;6.07;;;15.40;99.90;;;;;;5016395;28;20061;-77
2022/10/19 10:17:11;;;;;;;31.25;6.28;;;15.40;99.90;;;;;;5015982;28;20465;-77
2022/10/19 10:19:50;;;;;;;35.28;6.47;;;15.30;99.90;;;;;;4998804;28;20046;-78
2022/10/19 10:22:30;;;;;;;31.10;5.80;;;15.30;99.90;;;;;;5015186;28;20050;-76
2022/10/19 10:24:58;;;;;;;29.38;6.50;;;15.20;99.90;;;;;;5016199;28;20061;-77
2022/10/19 10:27:31;;;;;;;;;;;15.20;99.90;;;;;;4998904;28;20054;-77
2022/10/19 10:30:08;;;;;;;27.80;6.18;;;15.10;99.90;;;;;;5014941;28;20267;-77
2022/10/19 10:32:39;;;;;;;31.88;6.05;;;15.20;99.90;;;;;;4982511;28;20050;-77
2022/10/19 10:35:38;;;;;;;26.52;5.63;;;15.20;99.90;;;;;;5015033;28;20057;-76
2022/10/19 10:38:16;;;;;;;32.83;6.43;;;15.30;99.90;;;;;;4998699;28;20042;-77
2022/10/19 10:40:55;;;;;;;34.30;5.93;;;15.30;99.90;;;;;;4998553;28;20042;-76
2022/10/19 10:43:32;;;;;;;28.23;5.50;;;15.30;99.90;;;;;;5014603;28;20453;-77
2022/10/19 10:46:06;;;;;;;38.35;6.50;;;15.30;99.90;;;;;;4998598;28;20069;-77
2022/10/19 10:48:52;;;;;;;31.15;6.18;;;15.30;99.90;;;;;;4997465;28;20388;-77
2022/10/19 10:51:32;;;;;;;35.88;6.15;;;15.40;99.90;;;;;;5015799;28;20381;-78
2022/10/19 10:54:19;;;;;;;36.70;6.68;;;15.40;99.90;;;;;;4982566;28;20042;-77
2022/10/19 10:57:05;;;;;;;32.65;6.10;;;15.40;99.90;;;;;;5014237;28;20042;-76
2022/10/19 10:59:55;;;;;;;34.40;6.10;;;15.50;99.90;;;;;;5015691;28;20050;-77
2022/10/19 11:02:48;;;;;;;32.05;5.90;;;15.60;99.90;;;;;;5014309;28;20484;-78
2022/10/19 11:05:34;;;;;;;42.47;6.20;;;15.70;99.90;;;;;;4998193;28;20050;-78
2022/10/19 11:08:11;;;;;;;28.65;5.78;;;15.70;99.90;;;;;;4980667;28;20064;-78
2022/10/19 11:10:47;;;;;;;28.05;5.43;;;15.80;99.90;;;;;;5014633;28;20053;-76
2022/10/19 11:13:40;;;;;;;35.78;6.20;;;17.00;99.90;;;;;;4981551;28;20057;-79
2022/10/19 11:16:13;;;;;;;29.15;5.70;;;15.90;99.90;;;;;;5013802;28;20057;-76
2022/10/19 11:19:07;;;;;;;30.05;6.35;;;16.10;99.90;;;;;;4981905;28;20057;-78
2022/10/19 11:21:43;;;;;;;31.23;6.10;;;16.10;99.90;;;;;;5013301;28;20068;-78
2022/10/19 11:24:36;;;;;;;35.42;6.10;;;16.10;99.90;;;;;;4998991;28;20054;-75
2022/10/19 11:27:12;;;;;;;30.50;5.70;;;16.20;99.90;;;;;;4981279;28;20328;-79
2022/10/19 11:29:48;;;;;;;31.08;5.80;;;16.20;99.90;;;;;;4996493;28;20046;-76
2022/10/19 11:32:34;;;;;;;28.23;6.25;;;16.20;99.90;;;;;;5014488;28;20042;-77
2022/10/19 11:35:05;;;;;;;29.80;5.20;;;16.30;99.90;;;;;;4996504;28;20377;-79
2022/10/19 11:37:51;;;;;;;26.98;5.65;;;16.40;99.90;;;;;;5014386;28;20053;-77
2022/10/19 11:40:53;;;;;;;37.67;5.85;;;16.50;99.90;;;;;;4996738;28;20381;-76
2022/10/19 11:43:48;;;;;;;39.72;5.82;;;16.50;99.90;;;;;;4997343;28;20475;-78
2022/10/19 11:46:24;;;;;;;30.45;5.13;;;16.50;99.90;;;;;;4997539;28;20054;-79
2022/10/19 11:49:13;;;;;;;34.42;5.65;;;16.50;99.90;;;;;;4996429;28;20049;-77
2022/10/19 11:51:56;;;;;;;26.52;5.35;;;16.50;99.90;;;;;;4997027;28;20117;-77
2022/10/19 11:54:36;;;;;;;34.17;5.57;;;16.50;99.90;;;;;;4997532;28;20042;-76
2022/10/19 11:57:15;;;;;;;27.08;5.03;;;16.50;99.90;;;;;;4997353;28;20050;-76
2022/10/19 11:59:46;;;;;;;28.42;5.72;;;16.50;99.90;;;;;;5014359;28;20041;-76
2022/10/19 12:02:49;;;;;;;30.40;5.63;;;16.50;99.90;;;;;;5013247;28;20456;-76
2022/10/19 12:06:01;;;;;;;28.70;5.55;;;16.40;99.90;;;;;;4997111;28;20177;-76
2022/10/19 12:09:02;;;;;;;33.35;5.88;;;16.40;99.90;;;;;;4983238;28;20065;-76
2022/10/19 12:11:48;;;;;;;30.98;5.57;;;16.30;99.90;;;;;;5014431;28;20492;-76
2022/10/19 12:14:27;;;;;;;33.20;6.03;;;16.30;99.90;;;;;;4996930;28;20041;-76
2022/10/19 12:17:00;;;;;;;27.75;5.85;;;16.30;99.90;;;;;;5013318;28;20385;-76
2022/10/19 12:19:41;;;;;;;31.50;6.15;;;16.30;99.90;;;;;;5014321;28;20042;-76
2022/10/19 12:22:15;;;;;;;28.48;5.80;;;16.20;99.90;;;;;;5012876;28;20484;-76
2022/10/19 12:24:42;;;;;;;28.42;5.80;;;16.30;99.90;;;;;;5014455;28;20053;-76
2022/10/19 12:27:13;;;;;;;32.78;6.05;;;16.40;99.90;;;;;;5014158;28;20050;-76
2022/10/19 12:29:46;;;;;;;31.33;5.65;;;16.40;99.90;;;;;;4995973;28;20381;-76
2022/10/19 12:32:18;;;;;;;35.63;5.75;;;16.40;99.90;;;;;;5014210;28;20053;-76
2022/10/19 12:35:11;;;;;;;28.92;6.05;;;16.50;99.90;;;;;;4995357;28;20060;-76
2022/10/19 12:37:42;;;;;;;35.80;6.22;;;17.30;99.90;;;;;;5014065;28;20046;-76
2022/10/19 12:40:38;;;;;;;27.00;5.55;;;16.80;99.90;;;;;;5014171;28;20049;-76
2022/10/19 12:43:18;;;;;;;33.22;5.85;;;16.90;99.90;;;;;;4979530;28;20370;-76
2022/10/19 12:46:27;;;;;;;30.00;5.63;;;17.00;99.90;;;;;;5013990;28;20061;-76
2022/10/19 12:49:29;;;;;;;29.08;6.10;;;17.00;99.90;;;;;;5013059;28;20062;-76
2022/10/19 12:51:59;;;;;;;31.20;5.78;;;17.00;99.90;;;;;;5016855;28;20041;-76
2022/10/19 12:54:36;;;;;;;34.15;5.85;;;17.10;99.90;;;;;;5000728;28;20046;-76
2022/10/19 12:57:22;;;;;;;28.40;6.07;;;17.00;99.90;;;;;;5017476;28;20046;-76
2022/10/19 13:00:20;;;;;;;32.65;6.03;;;17.00;99.90;;;;;;5017249;28;20046;-76
2022/10/19 13:02:55;;;;;;;30.95;6.05;;;16.90;99.90;;;;;;5016222;28;20503;-76
2022/10/19 13:05:26;;;;;;;37.65;6.20;;;16.90;99.90;;;;;;5017053;28;20050;-75
2022/10/19 13:07:54;;;;;;;28.98;5.30;;;16.80;99.90;;;;;;5016216;28;20369;-75
2022/10/19 13:10:27;;;;;;;31.77;5.80;;;16.80;99.90;;;;;;5017183;28;20061;-75
2022/10/19 13:12:54;;;;;;;28.20;5.38;;;16.80;99.90;;;;;;5017028;28;20045;-77